7CL1 weather

Children's Hospital Oakland Heliport
Oakland, California, United States

Public forecast

Using degrees Fahrenheit for public forecast. Weather courtesy of forecast.io.

METAR (pilot weather report)

Closest report is Metropolitan Oakland International Airport, 7.2 nm (13.4 km) SSE. Retrieved 2019/09/21 11:53 UTC (27 minutes ago):

KOAK 211153Z 05003KT 10SM CLR 16/11 A2995 RMK AO2 SLP139 T01560106 10183 20150 53001

TAF (pilot weather forecast)

Closest forecast is Metropolitan Oakland International Airport, 7.2 nm (13.4 km) SSE. Retrieved 2019/09/21 12:28 UTC (0 seconds ago):

TAF KOAK 211126Z 2112/2218 04004KT P6SM SKC FM211800 27007KT P6SM SKC FM212000 30011KT P6SM SKC FM220400 32005KT P6SM SKC FM220800 VRB03KT P6SM SCT006 FM221000 VRB02KT P6SM BKN005 FM221700 26006KT P6SM FEW008